Flight Track Log - Related Links

Times and Time Zones

All times are in EDT time to prevent confusion due to time zone crossing. See the SWA3206 flight status page for this flight to view local times or setup timezone preferences in your user account.

Time Position Orientation Groundspeed Altitude Reporting Facility
EDT Latitude Longitude Course Direction KTS MPH feet Rate Location/Type
Fri 11:12:31 AM 39.8667 -75.2833 218° Southwest 143 165 900  Level Philadelphia TRACON
Fri 11:12:55 AM 39.8500 -75.3000 218° Southwest 165 190 1,500 1,857 Climbing Philadelphia TRACON
Fri 11:13:55 AM 39.8333 -75.3833 255° West 222 255 3,500 2,850 Climbing Philadelphia TRACON
Fri 11:14:55 AM 39.8333 -75.4667 270° West 267 307 7,200 3,476 Climbing Philadelphia TRACON
Fri 11:16:01 AM 39.9167 -75.4833 351° North 278 320 10,800 2,667 Climbing Philadelphia TRACON
Fri 11:17:01 AM 40.0167 -75.5167 346° North 361 415 12,800 1,714 Climbing Philadelphia TRACON
Fri 11:17:18 AM 40.0306 -75.5178 356° North 366 421 13,000 156 Climbing New York Center
Fri 11:18:18 AM 40.1192 -75.5400 349° North 374 430 13,000 150 Level New York Center
Fri 11:19:18 AM 40.2261 -75.5747 346° North 366 421 13,300 1,400 Climbing New York Center
Fri 11:20:18 AM 40.2933 -75.6664 314° West 344 396 15,800 1,866 Climbing New York Center
Fri 11:21:17 AM 40.3600 -75.7692 310° West 356 410 17,000 1,100 Climbing New York Center
Fri 11:22:18 AM 40.4206 -75.8608 311° West 373 429 18,000 1,475 Climbing New York Center
Fri 11:23:19 AM 40.4622 -76.0031 291° West 378 435 20,000 2,500 Climbing New York Center
Fri 11:24:18 AM 40.4750 -76.1406 277° West 385 443 23,000 2,700 Climbing New York Center
Fri 11:25:19 AM 40.4989 -76.2978 281° West 403 464 25,400 2,492 Climbing New York Center
Fri 11:26:16 AM 40.5211 -76.4444 281° West 408 470 27,900 1,322 Climbing New York Center
Fri 11:27:17 AM 40.5431 -76.5911 281° West 413 475 28,000 50 Climbing New York Center
Fri 11:28:17 AM 40.5650 -76.7378 281° West 413 475 28,000  Level New York Center
Fri 11:29:18 AM 40.5867 -76.8844 281° West 413 475 28,000  Level New York Center
Fri 11:30:19 AM 40.6100 -77.0369 281° West 413 475 28,000  Level New York Center
Fri 11:31:19 AM 40.6311 -77.1894 280° West 413 475 28,000  Level New York Center
Fri 11:32:17 AM 40.6519 -77.3417 280° West 418 481 28,000  Level New York Center
Fri 11:33:19 AM 40.6744 -77.4944 281° West 418 481 28,000  Level New York Center
Fri 11:35:46 AM 40.7225 -77.8597 280° West 422 486 28,000  Level Cleveland Center
Fri 11:36:46 AM 40.7428 -78.0153 280° West 428 493 28,000  Level Cleveland Center
Fri 11:37:46 AM 40.7650 -78.1678 281° West 428 493 28,000  Level Cleveland Center
Fri 11:38:46 AM 40.7847 -78.3206 280° West 428 493 28,000  Level Cleveland Center
Fri 11:39:46 AM 40.8044 -78.4764 280° West 428 493 28,000  Level Cleveland Center
Fri 11:40:46 AM 40.8242 -78.6431 279° West 428 493 28,000  Level Cleveland Center
Fri 11:41:46 AM 40.8456 -78.7989 280° West 428 493 28,000  Level Cleveland Center
Fri 11:42:46 AM 40.8686 -78.9578 281° West 433 498 28,000  Level Cleveland Center
Fri 11:43:46 AM 40.8875 -79.1108 279° West 433 498 28,000  Level Cleveland Center
Fri 11:44:46 AM 40.9061 -79.2700 279° West 433 498 28,000  Level Cleveland Center
Fri 11:45:46 AM 40.9244 -79.4233 279° West 433 498 28,000  Level Cleveland Center
Fri 11:46:46 AM 40.9425 -79.5797 279° West 433 498 28,000  Level Cleveland Center
Fri 11:47:46 AM 40.9606 -79.7389 279° West 433 498 28,000  Level Cleveland Center
Fri 11:48:46 AM 40.9803 -79.8900 280° West 428 493 28,000  Level Cleveland Center
Fri 11:49:46 AM 40.9978 -80.0439 279° West 428 493 28,000  Level Cleveland Center
Fri 11:50:46 AM 41.0150 -80.2006 278° West 428 493 28,000  Level Cleveland Center
Fri 11:51:46 AM 41.0342 -80.3519 280° West 428 493 28,000  Level Cleveland Center
Fri 11:52:46 AM 41.0489 -80.5061 277° West 428 493 28,000  Level Cleveland Center
Fri 11:53:46 AM 41.0656 -80.6436 279° West 428 493 28,000  Level Cleveland Center
Fri 11:54:46 AM 41.0822 -80.7953 278° West 428 493 28,000  Level Cleveland Center
Fri 11:55:46 AM 41.0964 -80.9386 278° West 416 479 28,000  Level Cleveland Center
Fri 11:56:46 AM 41.1106 -81.0903 277° West 401 461 28,000  Level Cleveland Center
Fri 11:57:46 AM 41.1264 -81.2281 279° West 384 442 28,000  Level Cleveland Center
Fri 11:58:46 AM 41.1403 -81.3606 278° West 379 436 28,000 -200 Level Cleveland Center
Fri 11:59:46 AM 41.1539 -81.4767 279° West 369 425 27,600 -700 Descending Cleveland Center
Fri 12:00:46 PM 41.1694 -81.6147 279° West 369 425 26,600 -800 Descending Cleveland Center
Fri 12:01:46 PM 41.1828 -81.7503 277° West 369 425 26,000 -300 Descending Cleveland Center
Fri 12:02:46 PM 41.1958 -81.8911 277° West 374 430 26,000  Level Cleveland Center
Fri 12:03:46 PM 41.2106 -82.0486 277° West 402 463 26,000  Level Cleveland Center
Fri 12:04:46 PM 41.2231 -82.2064 276° West 434 499 26,000  Level Cleveland Center
Fri 12:05:46 PM 41.2392 -82.3753 277° West 434 499 26,000  Level Cleveland Center
Fri 12:06:46 PM 41.2533 -82.5247 277° West 420 483 26,000  Level Cleveland Center
Fri 12:07:46 PM 41.2675 -82.6772 277° West 415 478 26,000  Level Cleveland Center
Fri 12:08:46 PM 41.2811 -82.8297 277° West 415 478 26,000  Level Cleveland Center
Fri 12:09:46 PM 41.2928 -82.9792 276° West 415 478 26,000  Level Cleveland Center
Fri 12:10:46 PM 41.3083 -83.1292 278° West 415 478 26,000  Level Cleveland Center
Fri 12:11:46 PM 41.3175 -83.2678 275° West 415 478 26,000  Level Cleveland Center
Fri 12:12:46 PM 41.3306 -83.4175 277° West 415 478 26,000 -100 Level Cleveland Center
Fri 12:13:46 PM 41.3436 -83.5675 277° West 415 478 25,800 -450 Descending Cleveland Center
Fri 12:14:46 PM 41.3561 -83.7175 276° West 410 472 25,100 -850 Descending Cleveland Center
Fri 12:15:46 PM 41.3686 -83.8675 276° West 410 472 24,100 -431 Descending Cleveland Center
Fri 12:17:19 PM 41.3897 -84.0919 277° West 409 471 24,000 -39 Descending Chicago Center
Fri 12:18:20 PM 41.4014 -84.2419 276° West 409 471 24,000  Level Chicago Center
Fri 12:19:22 PM 41.4147 -84.4211 276° West 406 467 24,000  Level Chicago Center
Fri 12:20:24 PM 41.4256 -84.5717 276° West 408 470 24,000  Level Chicago Center
Fri 12:21:26 PM 41.4375 -84.7228 276° West 410 472 24,000  Level Chicago Center
Fri 12:22:28 PM 41.4478 -84.8708 275° West 405 466 24,000  Level Chicago Center
Fri 12:23:30 PM 41.4583 -85.0231 275° West 411 473 24,000  Level Chicago Center
Fri 12:24:32 PM 41.4689 -85.1739 275° West 408 470 24,000 -484 Level Chicago Center
Fri 12:25:34 PM 41.4786 -85.3253 275° West 406 467 23,000 -1,016 Descending Chicago Center
Fri 12:26:36 PM 41.4886 -85.4792 275° West 407 468 21,900 -1,016 Descending Chicago Center
Fri 12:27:38 PM 41.5014 -85.6614 275° West 405 466 20,900 -968 Descending Chicago Center
Fri 12:28:40 PM 41.5075 -85.8136 273° West 409 471 19,900 -1,016 Descending Chicago Center
Fri 12:29:42 PM 41.5114 -85.9614 272° West 398 458 18,800 -1,548 Descending Chicago Center
Fri 12:30:44 PM 41.5150 -86.1064 272° West 391 450 16,700 -2,419 Descending Chicago Center
Fri 12:31:46 PM 41.5189 -86.2447 272° West 373 429 13,800 -2,710 Descending Chicago Center
Fri 12:32:48 PM 41.5222 -86.3769 272° West 359 413 11,100 -1,887 Descending Chicago Center
Fri 12:33:50 PM 41.5214 -86.5303 270° West 345 397 9,900 -581 Descending Chicago Center
Fri 12:34:52 PM 41.5200 -86.6556 269° West 338 389 9,900  Level Chicago Center
Fri 12:35:54 PM 41.5203 -86.7708 270° West 340 391 9,900 -339 Level Chicago Center
Fri 12:36:56 PM 41.5186 -86.8914 269° West 270 311 9,200 -1,056 Descending Chicago Center
Fri 12:37:59 PM 41.5186 -86.9858 270° West 257 296 7,700 -1,392 Descending Chicago Center
Fri 12:39:01 PM 41.5342 -87.0775 283° West 254 292 6,300 -1,065 Descending Chicago Center
Fri 12:40:03 PM 41.5542 -87.1669 287° West 254 292 5,500 -907 Descending Chicago Center
Fri 12:40:27 PM 41.5667 -87.2167 289° West 251 289 5,000 -1,000 Descending Chicago TRACON
Fri 12:41:27 PM 41.5833 -87.3000 285° West 254 292 4,100 -500 Descending Chicago TRACON
Fri 12:42:27 PM 41.6000 -87.3833 285° West 250 288 4,000 -59 Descending Chicago TRACON
Fri 12:43:09 PM 41.6128 -87.4481 285° West 247 284 4,000  Level Chicago Center
Fri 12:44:11 PM 41.6267 -87.5211 284° West 226 260 4,000  Level Chicago Center
Fri 12:45:13 PM 41.6597 -87.5758 309° West 206 237 4,000 -387 Level Chicago Center
Fri 12:46:15 PM 41.6933 -87.6228 314° West 190 219 3,200 -919 Descending Chicago Center
Fri 12:47:17 PM 41.7317 -87.6781 313° West 178 205 2,100 -871 Descending Chicago Center
Fri 12:48:19 PM 41.7556 -87.7119 313° West 152 175 1,400 -532 Descending Chicago Center
Fri 12:49:21 PM 41.7753 -87.7392 314° West 137 158 1,000 -387 Descending Chicago Center
Fri 12:51:00 PM 41.7833 -87.7500 334° Northwest  Level FlightAware Approximate

Login

Don't have an account? Register now (free) for customized features, flight alerts, and more!